KCDW/CDW METAR and TAF weather

Enter ICAO airport designator
Station Type Date Time Source
KCDW METAR 2019/07/15 19:53 UTC NOAA

KCDW 151953Z 26005KT 10SM CLR 31/15 A3002 RMK AO2 SLP169 T03110150


Station Type Date Time Source
KCDW Decoded METAR 2019/07/15 19:53 UTC NOAA

CALDWELL ESSEX COUNTY AIRPORT , NJ, United States (KCDW) 40-53N 074-17W 64M
Jul 15, 2019 - 03:53 PM EDT / 2019.07.15 1953 UTC
Wind: from the W (260 degrees) at 6 MPH (5 KT):0
Visibility: 10 mile(s):0
Sky conditions: clear
Temperature: 88.0 F (31.1 C)
Dew Point: 59.0 F (15.0 C)
Relative Humidity: 37%
Pressure (altimeter): 30.02 in. Hg (1016 hPa)
ob: KCDW 151953Z 26005KT 10SM CLR 31/15 A3002 RMK AO2 SLP169 T03110150
cycle: 20

Station Type Date Time Source
KCDW TAF UTC NOAA

Error!

Example: see airport list